CFG454 EDDF-CYVR
Flight info
| Callsign | CFG454 |
|---|---|
| Flight time | N/A |
| Altitude | 24000 |
| Route | MARUN7F/25C MARUN Y152 ARPEG/N0457F380 Z850 ABILU DCT ATPAQ DCT OMIMA DCT ATNAK DCT GUNPA/M081F380 DCT 65N010W 6730N02000W 70N030W 72N040W/M081F400 73N060W DCT MEDPA/N0471F400 DCT 71N080W 6830N09000W 65N100W 60N110W 55N116W DCT MERYT DCT BOOTH CANUC6 |
| Aircraft | A333/H-SDE3GHIJ2J3J5M1RVWXY/LB2D1 |
Departure
| Time | N/A |
|---|---|
| Airport | Frankfurt Main Airport (EDDF) |
Arrival
| Time | 2026-05-03 23:30 |
|---|---|
| Airport | Vancouver International Airport (CYVR) |
| Time | Latitude | Longitude | Altitude | Speed | Heading |
|---|---|---|---|---|---|
| 2026-05-03 20:15 | 67.91549 | -92.02787 | 38333 ft | 441 kts | 230° |
| 2026-05-03 20:15 | 67.87703 | -92.15486 | 38330 ft | 441 kts | 230° |
| 2026-05-03 20:16 | 67.83866 | -92.28077 | 38330 ft | 441 kts | 230° |
| 2026-05-03 20:16 | 67.79999 | -92.40700 | 38334 ft | 441 kts | 230° |
| 2026-05-03 20:17 | 67.76131 | -92.53250 | 38330 ft | 441 kts | 230° |
| 2026-05-03 20:17 | 67.72244 | -92.65789 | 38325 ft | 441 kts | 230° |
| 2026-05-03 20:18 | 67.68377 | -92.78192 | 38329 ft | 441 kts | 230° |
| 2026-05-03 20:18 | 67.64468 | -92.90661 | 38321 ft | 443 kts | 230° |
| 2026-05-03 20:19 | 67.60528 | -93.03153 | 38323 ft | 444 kts | 230° |
| 2026-05-03 20:19 | 67.57241 | -93.13520 | 38317 ft | 444 kts | 230° |
| 2026-05-03 20:20 | 67.53287 | -93.25924 | 38319 ft | 444 kts | 230° |
| 2026-05-03 20:20 | 67.49319 | -93.38305 | 38321 ft | 444 kts | 229° |
| 2026-05-03 20:21 | 67.45348 | -93.50622 | 38315 ft | 443 kts | 229° |
| 2026-05-03 20:21 | 67.41374 | -93.62878 | 38317 ft | 443 kts | 229° |
| 2026-05-03 20:22 | 67.37407 | -93.75039 | 38327 ft | 443 kts | 229° |
| 2026-05-03 20:22 | 67.33408 | -93.87233 | 38314 ft | 444 kts | 229° |
| 2026-05-03 20:23 | 67.29389 | -93.99424 | 38315 ft | 444 kts | 229° |
| 2026-05-03 20:23 | 67.25370 | -94.11543 | 38317 ft | 444 kts | 228° |
| 2026-05-03 20:24 | 67.21337 | -94.23634 | 38314 ft | 444 kts | 229° |
| 2026-05-03 20:24 | 67.17300 | -94.35671 | 38310 ft | 444 kts | 228° |
| 2026-05-03 20:25 | 67.13272 | -94.47618 | 38298 ft | 444 kts | 227° |
| 2026-05-03 20:25 | 67.09209 | -94.59600 | 38303 ft | 444 kts | 228° |
| 2026-05-03 20:26 | 67.05143 | -94.71519 | 38288 ft | 444 kts | 228° |
| 2026-05-03 20:26 | 67.01068 | -94.83398 | 38290 ft | 444 kts | 227° |
| 2026-05-03 20:27 | 66.96982 | -94.95249 | 38297 ft | 444 kts | 227° |
| 2026-05-03 20:27 | 66.92884 | -95.07069 | 38281 ft | 444 kts | 227° |
| 2026-05-03 20:28 | 66.88775 | -95.18856 | 38285 ft | 444 kts | 227° |
| 2026-05-03 20:28 | 66.84688 | -95.30516 | 38281 ft | 444 kts | 227° |
| 2026-05-03 20:29 | 66.80545 | -95.42268 | 38287 ft | 444 kts | 227° |
| 2026-05-03 20:29 | 66.76420 | -95.53907 | 38275 ft | 448 kts | 227° |
| 2026-05-03 20:30 | 66.72239 | -95.65643 | 38277 ft | 449 kts | 227° |
| 2026-05-03 20:30 | 66.68050 | -95.77336 | 38287 ft | 448 kts | 227° |
| 2026-05-03 20:31 | 66.63855 | -95.88984 | 38276 ft | 448 kts | 227° |
| 2026-05-03 20:31 | 66.59674 | -96.00524 | 38272 ft | 448 kts | 227° |
| 2026-05-03 20:32 | 66.55463 | -96.12085 | 38272 ft | 449 kts | 226° |
| 2026-05-03 20:32 | 66.51239 | -96.23621 | 38275 ft | 449 kts | 226° |
| 2026-05-03 20:33 | 66.47001 | -96.35134 | 38271 ft | 449 kts | 226° |
| 2026-05-03 20:33 | 66.42749 | -96.46623 | 38267 ft | 450 kts | 226° |
| 2026-05-03 20:34 | 66.38505 | -96.58025 | 38266 ft | 451 kts | 226° |
| 2026-05-03 20:34 | 66.34215 | -96.69492 | 38262 ft | 452 kts | 226° |
| 2026-05-03 20:35 | 66.29919 | -96.80913 | 38262 ft | 452 kts | 226° |
| 2026-05-03 20:35 | 66.25612 | -96.92301 | 38258 ft | 452 kts | 226° |
| 2026-05-03 20:36 | 66.21303 | -97.03638 | 38257 ft | 452 kts | 226° |
| 2026-05-03 20:36 | 66.17004 | -97.14884 | 38255 ft | 452 kts | 226° |
| 2026-05-03 20:37 | 66.12658 | -97.26197 | 38256 ft | 452 kts | 226° |
| 2026-05-03 20:37 | 66.08319 | -97.37430 | 38254 ft | 452 kts | 226° |
| 2026-05-03 20:38 | 66.03970 | -97.48624 | 38255 ft | 453 kts | 226° |
| 2026-05-03 20:38 | 65.99600 | -97.59819 | 38254 ft | 454 kts | 225° |
| 2026-05-03 20:39 | 65.95246 | -97.70914 | 38252 ft | 454 kts | 225° |
| 2026-05-03 20:39 | 65.90852 | -97.82055 | 38247 ft | 454 kts | 225° |
| 2026-05-03 20:40 | 65.86457 | -97.93139 | 38247 ft | 454 kts | 225° |
| 2026-05-03 20:40 | 65.82048 | -98.04199 | 38243 ft | 454 kts | 225° |
| 2026-05-03 20:41 | 65.77636 | -98.15208 | 38236 ft | 454 kts | 225° |
| 2026-05-03 20:41 | 65.73212 | -98.26188 | 38239 ft | 454 kts | 225° |
| 2026-05-03 20:42 | 65.68781 | -98.37132 | 38227 ft | 454 kts | 225° |
| 2026-05-03 20:42 | 65.64331 | -98.48064 | 38224 ft | 456 kts | 225° |
| 2026-05-03 20:43 | 65.59864 | -98.58983 | 38232 ft | 457 kts | 225° |
| 2026-05-03 20:43 | 65.55414 | -98.69803 | 38229 ft | 457 kts | 225° |
| 2026-05-03 20:44 | 65.50927 | -98.80659 | 38226 ft | 457 kts | 224° |
| 2026-05-03 20:44 | 65.46430 | -98.91481 | 38224 ft | 457 kts | 224° |
| 2026-05-03 20:45 | 65.41919 | -99.02280 | 38219 ft | 457 kts | 224° |
| 2026-05-03 20:45 | 65.37413 | -99.13012 | 38220 ft | 457 kts | 224° |
| 2026-05-03 20:46 | 65.32886 | -99.23738 | 38230 ft | 457 kts | 224° |
| 2026-05-03 20:46 | 65.28366 | -99.34389 | 38209 ft | 459 kts | 224° |
| 2026-05-03 20:47 | 65.23813 | -99.45070 | 38211 ft | 459 kts | 224° |
| 2026-05-03 20:47 | 65.19239 | -99.55742 | 38210 ft | 459 kts | 224° |
| 2026-05-03 20:48 | 65.14660 | -99.66372 | 38214 ft | 459 kts | 224° |
| 2026-05-03 20:48 | 65.10106 | -99.76890 | 38223 ft | 459 kts | 224° |
| 2026-05-03 20:49 | 65.05513 | -99.87444 | 38203 ft | 459 kts | 224° |
| 2026-05-03 20:49 | 65.00929 | -99.97927 | 38212 ft | 460 kts | 224° |
| 2026-05-03 20:50 | 64.96461 | -100.08775 | 38197 ft | 461 kts | 227° |
| 2026-05-03 20:50 | 64.92122 | -100.19919 | 38203 ft | 461 kts | 227° |
| 2026-05-03 20:51 | 64.87776 | -100.31059 | 38194 ft | 462 kts | 227° |
| 2026-05-03 20:51 | 64.83397 | -100.42134 | 38194 ft | 462 kts | 226° |
| 2026-05-03 20:52 | 64.78995 | -100.53157 | 38198 ft | 462 kts | 226° |
| 2026-05-03 20:52 | 64.74589 | -100.64124 | 38197 ft | 462 kts | 227° |
| 2026-05-03 20:53 | 64.70190 | -100.75018 | 38198 ft | 463 kts | 226° |
| 2026-05-03 20:53 | 64.65751 | -100.85963 | 38189 ft | 463 kts | 226° |
| 2026-05-03 20:54 | 64.61306 | -100.96867 | 38190 ft | 464 kts | 226° |
| 2026-05-03 20:54 | 64.54648 | -101.13097 | 38189 ft | 464 kts | 226° |
| 2026-05-03 20:55 | 64.50173 | -101.23937 | 38187 ft | 465 kts | 226° |
| 2026-05-03 20:55 | 64.45681 | -101.34763 | 38181 ft | 466 kts | 226° |
| 2026-05-03 20:56 | 64.41168 | -101.45582 | 38198 ft | 467 kts | 226° |
| 2026-05-03 20:56 | 64.36653 | -101.56356 | 38182 ft | 466 kts | 226° |
| 2026-05-03 20:57 | 64.32127 | -101.67099 | 38195 ft | 466 kts | 226° |
| 2026-05-03 20:57 | 64.27589 | -101.77821 | 38181 ft | 467 kts | 226° |
| 2026-05-03 20:58 | 64.23046 | -101.88496 | 38180 ft | 467 kts | 226° |
| 2026-05-03 20:58 | 64.18523 | -101.99073 | 38193 ft | 467 kts | 226° |
| 2026-05-03 20:59 | 64.13955 | -102.09703 | 38178 ft | 467 kts | 226° |
| 2026-05-03 20:59 | 64.09381 | -102.20296 | 38186 ft | 467 kts | 226° |
| 2026-05-03 21:00 | 64.06350 | -102.27291 | 38188 ft | 467 kts | 225° |
| 2026-05-03 21:00 | 64.00259 | -102.41265 | 38190 ft | 468 kts | 226° |
| 2026-05-03 21:01 | 63.95656 | -102.51767 | 38181 ft | 468 kts | 225° |
| 2026-05-03 21:01 | 63.91052 | -102.62213 | 38178 ft | 468 kts | 226° |
| 2026-05-03 21:02 | 63.86431 | -102.72653 | 38182 ft | 469 kts | 225° |
| 2026-05-03 21:02 | 63.81794 | -102.83078 | 38176 ft | 469 kts | 226° |
| 2026-05-03 21:03 | 63.77146 | -102.93478 | 38175 ft | 470 kts | 226° |
| 2026-05-03 21:03 | 63.72493 | -103.03836 | 38172 ft | 470 kts | 225° |
| 2026-05-03 21:04 | 63.67826 | -103.14171 | 38172 ft | 470 kts | 226° |
| 2026-05-03 21:04 | 63.63174 | -103.24428 | 38159 ft | 470 kts | 225° |
| 2026-05-03 21:05 | 63.58489 | -103.34704 | 38161 ft | 471 kts | 225° |
| 2026-05-03 21:05 | 63.53793 | -103.44955 | 38159 ft | 471 kts | 226° |
| 2026-05-03 21:06 | 63.49083 | -103.55189 | 38161 ft | 472 kts | 225° |
| 2026-05-03 21:06 | 63.45127 | -103.63741 | 38146 ft | 472 kts | 225° |
| 2026-05-03 21:07 | 63.40442 | -103.73828 | 38147 ft | 472 kts | 225° |
| 2026-05-03 21:07 | 63.35709 | -103.83972 | 38135 ft | 471 kts | 225° |
| 2026-05-03 21:08 | 63.30971 | -103.94075 | 38142 ft | 471 kts | 225° |
| 2026-05-03 21:08 | 63.26229 | -104.04139 | 38139 ft | 471 kts | 225° |
| 2026-05-03 21:09 | 63.21479 | -104.14170 | 38141 ft | 471 kts | 225° |
| 2026-05-03 21:09 | 63.16717 | -104.24181 | 38141 ft | 471 kts | 225° |
| 2026-05-03 21:10 | 63.11955 | -104.34144 | 38133 ft | 471 kts | 225° |
| 2026-05-03 21:10 | 63.07182 | -104.44083 | 38124 ft | 471 kts | 225° |
| 2026-05-03 21:11 | 63.02401 | -104.53991 | 38131 ft | 471 kts | 225° |
| 2026-05-03 21:11 | 62.97640 | -104.63808 | 38130 ft | 472 kts | 225° |
| 2026-05-03 21:12 | 62.92843 | -104.73655 | 38124 ft | 472 kts | 224° |
| 2026-05-03 21:12 | 62.88019 | -104.83510 | 38125 ft | 473 kts | 224° |
| 2026-05-03 21:13 | 62.83202 | -104.93305 | 38120 ft | 473 kts | 224° |
| 2026-05-03 21:13 | 62.78404 | -105.03016 | 38101 ft | 473 kts | 224° |
| 2026-05-03 21:14 | 62.73568 | -105.12759 | 38116 ft | 473 kts | 224° |
| 2026-05-03 21:14 | 62.68722 | -105.22478 | 38115 ft | 473 kts | 224° |
| 2026-05-03 21:15 | 62.63868 | -105.32167 | 38102 ft | 473 kts | 224° |
| 2026-05-03 21:15 | 62.59011 | -105.41817 | 38104 ft | 473 kts | 224° |
| 2026-05-03 21:16 | 62.54144 | -105.51443 | 38107 ft | 473 kts | 224° |
| 2026-05-03 21:16 | 62.49296 | -105.60986 | 38086 ft | 473 kts | 224° |
| 2026-05-03 21:17 | 62.45237 | -105.68943 | 38099 ft | 474 kts | 224° |
| 2026-05-03 21:17 | 62.39510 | -105.80120 | 38095 ft | 475 kts | 224° |
| 2026-05-03 21:18 | 62.34596 | -105.89661 | 38097 ft | 475 kts | 224° |
| 2026-05-03 21:18 | 62.29682 | -105.99161 | 38092 ft | 475 kts | 224° |
| 2026-05-03 21:19 | 62.24790 | -106.08574 | 38091 ft | 475 kts | 224° |
| 2026-05-03 21:19 | 62.19861 | -106.18013 | 38076 ft | 475 kts | 224° |
| 2026-05-03 21:20 | 62.14921 | -106.27432 | 38081 ft | 476 kts | 224° |
| 2026-05-03 21:20 | 62.09987 | -106.36799 | 38081 ft | 476 kts | 224° |
| 2026-05-03 21:21 | 62.05030 | -106.46165 | 38080 ft | 476 kts | 224° |
| 2026-05-03 21:21 | 62.00060 | -106.55510 | 38073 ft | 476 kts | 224° |
| 2026-05-03 21:22 | 61.95090 | -106.64814 | 38076 ft | 476 kts | 224° |
| 2026-05-03 21:22 | 61.90136 | -106.74047 | 38078 ft | 476 kts | 224° |
| 2026-05-03 21:23 | 61.85148 | -106.83302 | 38064 ft | 476 kts | 224° |
| 2026-05-03 21:23 | 61.80147 | -106.92518 | 38067 ft | 476 kts | 224° |
| 2026-05-03 21:24 | 61.75145 | -107.01691 | 38057 ft | 477 kts | 224° |
| 2026-05-03 21:24 | 61.70136 | -107.10850 | 38060 ft | 477 kts | 224° |
| 2026-05-03 21:25 | 61.65113 | -107.20004 | 38065 ft | 477 kts | 224° |
| 2026-05-03 21:25 | 61.60089 | -107.29120 | 38055 ft | 477 kts | 224° |
| 2026-05-03 21:26 | 61.55067 | -107.38191 | 38051 ft | 477 kts | 224° |
| 2026-05-03 21:26 | 61.50030 | -107.47248 | 38044 ft | 477 kts | 224° |
| 2026-05-03 21:27 | 61.44987 | -107.56277 | 38044 ft | 477 kts | 224° |
| 2026-05-03 21:27 | 61.39969 | -107.65221 | 38048 ft | 477 kts | 224° |
| 2026-05-03 21:28 | 61.34911 | -107.74196 | 38036 ft | 477 kts | 224° |
| 2026-05-03 21:28 | 61.29849 | -107.83140 | 38030 ft | 477 kts | 224° |
| 2026-05-03 21:29 | 61.24780 | -107.92059 | 38031 ft | 476 kts | 224° |
| 2026-05-03 21:29 | 61.19744 | -108.00877 | 38026 ft | 477 kts | 224° |
| 2026-05-03 21:30 | 61.14673 | -108.09720 | 38021 ft | 476 kts | 224° |
| 2026-05-03 21:30 | 61.09589 | -108.18548 | 38024 ft | 476 kts | 223° |
| 2026-05-03 21:31 | 61.04504 | -108.27337 | 37992 ft | 476 kts | 224° |
| 2026-05-03 21:31 | 60.99416 | -108.36097 | 38014 ft | 476 kts | 224° |
| 2026-05-03 21:32 | 60.94321 | -108.44827 | 38016 ft | 476 kts | 224° |
| 2026-05-03 21:32 | 60.89218 | -108.53535 | 38014 ft | 477 kts | 224° |
| 2026-05-03 21:33 | 60.84107 | -108.62221 | 38005 ft | 477 kts | 223° |
| 2026-05-03 21:33 | 60.79030 | -108.70810 | 38004 ft | 477 kts | 223° |
| 2026-05-03 21:34 | 60.73907 | -108.79442 | 37998 ft | 477 kts | 223° |
| 2026-05-03 21:34 | 60.68781 | -108.88041 | 38000 ft | 477 kts | 223° |
| 2026-05-03 21:35 | 60.63637 | -108.96635 | 38002 ft | 477 kts | 223° |
| 2026-05-03 21:35 | 60.58500 | -109.05178 | 38001 ft | 477 kts | 223° |
| 2026-05-03 21:36 | 60.53357 | -109.13697 | 37996 ft | 477 kts | 223° |
| 2026-05-03 21:36 | 60.48199 | -109.22203 | 37996 ft | 478 kts | 223° |
| 2026-05-03 21:37 | 60.43033 | -109.30686 | 37995 ft | 477 kts | 223° |
| 2026-05-03 21:37 | 60.37867 | -109.39135 | 37994 ft | 477 kts | 223° |
| 2026-05-03 21:38 | 60.32728 | -109.47504 | 37999 ft | 477 kts | 223° |
| 2026-05-03 21:38 | 60.27540 | -109.55918 | 37992 ft | 477 kts | 223° |
| 2026-05-03 21:39 | 60.22355 | -109.64291 | 37988 ft | 477 kts | 223° |
| 2026-05-03 21:39 | 60.17202 | -109.72578 | 37991 ft | 477 kts | 223° |
| 2026-05-03 21:40 | 60.12009 | -109.80897 | 37999 ft | 477 kts | 223° |
| 2026-05-03 21:40 | 60.06807 | -109.89193 | 37989 ft | 477 kts | 223° |
| 2026-05-03 21:41 | 60.01607 | -109.97453 | 37988 ft | 477 kts | 222° |
| 2026-05-03 21:41 | 59.96339 | -110.05394 | 37994 ft | 479 kts | 219° |
| 2026-05-03 21:42 | 59.90919 | -110.12998 | 37985 ft | 479 kts | 219° |
| 2026-05-03 21:42 | 59.85446 | -110.20595 | 37987 ft | 479 kts | 219° |
| 2026-05-03 21:43 | 59.79990 | -110.28198 | 37990 ft | 478 kts | 219° |
| 2026-05-03 21:43 | 59.74593 | -110.35728 | 37994 ft | 478 kts | 219° |
| 2026-05-03 21:44 | 59.69188 | -110.43248 | 37994 ft | 478 kts | 219° |
| 2026-05-03 21:44 | 59.63731 | -110.50809 | 37992 ft | 478 kts | 219° |
| 2026-05-03 21:45 | 59.58282 | -110.58326 | 37995 ft | 478 kts | 219° |
| 2026-05-03 21:45 | 59.52837 | -110.65804 | 37995 ft | 477 kts | 219° |
| 2026-05-03 21:46 | 59.47391 | -110.73255 | 38005 ft | 476 kts | 218° |
| 2026-05-03 21:46 | 59.41942 | -110.80682 | 37996 ft | 476 kts | 218° |
| 2026-05-03 21:47 | 59.36532 | -110.88026 | 38003 ft | 476 kts | 218° |
| 2026-05-03 21:47 | 59.31075 | -110.95405 | 38004 ft | 477 kts | 218° |
| 2026-05-03 21:48 | 59.25607 | -111.02768 | 37969 ft | 477 kts | 219° |
| 2026-05-03 21:48 | 59.20141 | -111.10099 | 38007 ft | 476 kts | 219° |
| 2026-05-03 21:49 | 59.14683 | -111.17390 | 38010 ft | 475 kts | 219° |
| 2026-05-03 21:49 | 59.09270 | -111.24595 | 38012 ft | 475 kts | 218° |
| 2026-05-03 21:50 | 59.03786 | -111.31866 | 38002 ft | 475 kts | 218° |
| 2026-05-03 21:50 | 58.98320 | -111.39082 | 38004 ft | 475 kts | 218° |
| 2026-05-03 21:51 | 58.92843 | -111.46286 | 37986 ft | 476 kts | 219° |
| 2026-05-03 21:51 | 58.87356 | -111.53476 | 38012 ft | 476 kts | 219° |
| 2026-05-03 21:52 | 58.81878 | -111.60625 | 38036 ft | 475 kts | 219° |
| 2026-05-03 21:52 | 58.76386 | -111.67763 | 38020 ft | 476 kts | 219° |
| 2026-05-03 21:53 | 58.70926 | -111.74835 | 38027 ft | 476 kts | 219° |
| 2026-05-03 21:53 | 58.65427 | -111.81928 | 38029 ft | 476 kts | 219° |
| 2026-05-03 21:54 | 58.60816 | -111.87855 | 38028 ft | 476 kts | 219° |
| 2026-05-03 21:54 | 58.55310 | -111.94907 | 38031 ft | 476 kts | 219° |
| 2026-05-03 21:55 | 58.49832 | -112.01899 | 38033 ft | 477 kts | 219° |
| 2026-05-03 21:55 | 58.44299 | -112.08932 | 38031 ft | 477 kts | 219° |
| 2026-05-03 21:56 | 58.38765 | -112.15939 | 38039 ft | 477 kts | 219° |
| 2026-05-03 21:56 | 58.33233 | -112.22916 | 37998 ft | 477 kts | 219° |
| 2026-05-03 21:57 | 58.27695 | -112.29875 | 38035 ft | 477 kts | 219° |
| 2026-05-03 21:57 | 58.22153 | -112.36813 | 38043 ft | 477 kts | 218° |
| 2026-05-03 21:58 | 58.16597 | -112.43741 | 38031 ft | 477 kts | 218° |
| 2026-05-03 21:58 | 58.11077 | -112.50600 | 38037 ft | 478 kts | 218° |
| 2026-05-03 21:59 | 58.05476 | -112.57531 | 38037 ft | 478 kts | 218° |
| 2026-05-03 21:59 | 57.99951 | -112.64343 | 38026 ft | 478 kts | 218° |
| 2026-05-03 22:00 | 57.94379 | -112.71187 | 38038 ft | 477 kts | 218° |
| 2026-05-03 22:00 | 57.88836 | -112.77971 | 38040 ft | 477 kts | 218° |
| 2026-05-03 22:01 | 57.83260 | -112.84769 | 38026 ft | 477 kts | 218° |
| 2026-05-03 22:01 | 57.77679 | -112.91548 | 38027 ft | 478 kts | 218° |
| 2026-05-03 22:02 | 57.72126 | -112.98268 | 38020 ft | 478 kts | 218° |
| 2026-05-03 22:02 | 57.66530 | -113.05013 | 38014 ft | 478 kts | 218° |
| 2026-05-03 22:03 | 57.60993 | -113.11664 | 38021 ft | 478 kts | 218° |
| 2026-05-03 22:03 | 57.55397 | -113.18362 | 38010 ft | 478 kts | 218° |
| 2026-05-03 22:04 | 57.49797 | -113.25038 | 38012 ft | 478 kts | 218° |
| 2026-05-03 22:04 | 57.44187 | -113.31702 | 38015 ft | 478 kts | 218° |
| 2026-05-03 22:05 | 57.38579 | -113.38339 | 38022 ft | 479 kts | 218° |
| 2026-05-03 22:05 | 57.32989 | -113.44933 | 38026 ft | 480 kts | 218° |
| 2026-05-03 22:06 | 57.27344 | -113.51565 | 38030 ft | 480 kts | 218° |
| 2026-05-03 22:06 | 57.21701 | -113.58170 | 38026 ft | 480 kts | 218° |
| 2026-05-03 22:07 | 57.16048 | -113.64762 | 38032 ft | 480 kts | 218° |
| 2026-05-03 22:07 | 57.10396 | -113.71328 | 38023 ft | 480 kts | 218° |
| 2026-05-03 22:08 | 57.04745 | -113.77871 | 38025 ft | 480 kts | 218° |
| 2026-05-03 22:08 | 56.99089 | -113.84396 | 38026 ft | 480 kts | 218° |
| 2026-05-03 22:09 | 56.93464 | -113.90861 | 38020 ft | 480 kts | 218° |
| 2026-05-03 22:10 | 56.84963 | -114.00587 | 38020 ft | 480 kts | 218° |
| 2026-05-03 22:10 | 56.79290 | -114.07048 | 37993 ft | 480 kts | 218° |
| 2026-05-03 22:11 | 56.73600 | -114.13507 | 38017 ft | 481 kts | 218° |
| 2026-05-03 22:11 | 56.67896 | -114.19956 | 38018 ft | 482 kts | 218° |
| 2026-05-03 22:12 | 56.62226 | -114.26343 | 38003 ft | 482 kts | 218° |
| 2026-05-03 22:12 | 56.56525 | -114.32744 | 38010 ft | 482 kts | 218° |
| 2026-05-03 22:13 | 56.50812 | -114.39136 | 38009 ft | 482 kts | 218° |
| 2026-05-03 22:13 | 56.45100 | -114.45500 | 38008 ft | 482 kts | 218° |
| 2026-05-03 22:14 | 56.39387 | -114.51847 | 38009 ft | 482 kts | 218° |
| 2026-05-03 22:14 | 56.33666 | -114.58179 | 38004 ft | 482 kts | 218° |
| 2026-05-03 22:15 | 56.27943 | -114.64491 | 38007 ft | 482 kts | 218° |
| 2026-05-03 22:15 | 56.22253 | -114.70743 | 38007 ft | 482 kts | 218° |
| 2026-05-03 22:16 | 56.16521 | -114.77017 | 38012 ft | 482 kts | 219° |
| 2026-05-03 22:16 | 56.10796 | -114.83263 | 38011 ft | 481 kts | 219° |
| 2026-05-03 22:17 | 56.05067 | -114.89494 | 38012 ft | 481 kts | 219° |
| 2026-05-03 22:17 | 55.99371 | -114.95667 | 38013 ft | 481 kts | 219° |
| 2026-05-03 22:18 | 55.93638 | -115.01858 | 38023 ft | 481 kts | 219° |
| 2026-05-03 22:18 | 55.87899 | -115.08027 | 38017 ft | 482 kts | 220° |
| 2026-05-03 22:19 | 55.82152 | -115.14189 | 38033 ft | 482 kts | 220° |
| 2026-05-03 22:19 | 55.76433 | -115.20303 | 38031 ft | 483 kts | 220° |
| 2026-05-03 22:20 | 55.70661 | -115.26451 | 38037 ft | 483 kts | 219° |
| 2026-05-03 22:20 | 55.64897 | -115.32566 | 38034 ft | 483 kts | 219° |
| 2026-05-03 22:21 | 55.59117 | -115.38675 | 38009 ft | 483 kts | 220° |
| 2026-05-03 22:21 | 55.53337 | -115.44763 | 38049 ft | 484 kts | 220° |
| 2026-05-03 22:22 | 55.47549 | -115.50846 | 38047 ft | 485 kts | 219° |
| 2026-05-03 22:22 | 55.41744 | -115.56923 | 38049 ft | 485 kts | 219° |
| 2026-05-03 22:23 | 55.35968 | -115.62946 | 38061 ft | 485 kts | 219° |
| 2026-05-03 22:23 | 55.30145 | -115.68996 | 38006 ft | 485 kts | 220° |
| 2026-05-03 22:24 | 55.24326 | -115.75012 | 38056 ft | 483 kts | 220° |
| 2026-05-03 22:24 | 55.18546 | -115.80980 | 38056 ft | 482 kts | 220° |
| 2026-05-03 22:25 | 55.12771 | -115.86926 | 38059 ft | 483 kts | 220° |
| 2026-05-03 22:25 | 55.06955 | -115.92895 | 38057 ft | 485 kts | 219° |
| 2026-05-03 22:26 | 55.01120 | -115.98858 | 38001 ft | 486 kts | 219° |
| 2026-05-03 22:26 | 54.95435 | -116.04967 | 38054 ft | 480 kts | 222° |
| 2026-05-03 22:27 | 54.89844 | -116.11286 | 38055 ft | 478 kts | 223° |
| 2026-05-03 22:27 | 54.84256 | -116.17606 | 38052 ft | 479 kts | 222° |
| 2026-05-03 22:28 | 54.78656 | -116.23871 | 38050 ft | 479 kts | 222° |
| 2026-05-03 22:28 | 54.73084 | -116.30055 | 37991 ft | 479 kts | 221° |
| 2026-05-03 22:29 | 54.67455 | -116.36274 | 38044 ft | 478 kts | 221° |
| 2026-05-03 22:29 | 54.61853 | -116.42445 | 38045 ft | 478 kts | 221° |
| 2026-05-03 22:30 | 54.56252 | -116.48600 | 38043 ft | 478 kts | 221° |
| 2026-05-03 22:30 | 54.50644 | -116.54741 | 38045 ft | 478 kts | 221° |
| 2026-05-03 22:31 | 54.45024 | -116.60874 | 37981 ft | 478 kts | 221° |
| 2026-05-03 22:31 | 54.39421 | -116.66966 | 38040 ft | 475 kts | 221° |
| 2026-05-03 22:32 | 54.33881 | -116.72968 | 38040 ft | 473 kts | 221° |
| 2026-05-03 22:32 | 54.28305 | -116.78996 | 38040 ft | 473 kts | 221° |
| 2026-05-03 22:33 | 54.22723 | -116.85012 | 38039 ft | 473 kts | 221° |
| 2026-05-03 22:33 | 54.17147 | -116.91000 | 38040 ft | 473 kts | 221° |
| 2026-05-03 22:34 | 54.11565 | -116.96974 | 38046 ft | 473 kts | 221° |
| 2026-05-03 22:34 | 54.05979 | -117.02933 | 38041 ft | 473 kts | 221° |
| 2026-05-03 22:35 | 54.00424 | -117.08841 | 38025 ft | 474 kts | 220° |
| 2026-05-03 22:35 | 53.94823 | -117.14775 | 38045 ft | 474 kts | 220° |
| 2026-05-03 22:36 | 53.89224 | -117.20691 | 37986 ft | 473 kts | 220° |
| 2026-05-03 22:36 | 53.83627 | -117.26588 | 38034 ft | 474 kts | 220° |
| 2026-05-03 22:37 | 53.78018 | -117.32475 | 38028 ft | 474 kts | 220° |
| 2026-05-03 22:37 | 53.73358 | -117.37353 | 38029 ft | 474 kts | 220° |
| 2026-05-03 22:38 | 53.67756 | -117.43202 | 38031 ft | 474 kts | 220° |
| 2026-05-03 22:38 | 53.61231 | -117.49989 | 37989 ft | 474 kts | 219° |
| 2026-05-03 22:39 | 53.56524 | -117.54872 | 38028 ft | 475 kts | 219° |
| 2026-05-03 22:39 | 53.50896 | -117.60690 | 38027 ft | 475 kts | 219° |
| 2026-05-03 22:40 | 53.45324 | -117.66430 | 38023 ft | 475 kts | 219° |
| 2026-05-03 22:40 | 53.39679 | -117.72230 | 38025 ft | 475 kts | 219° |
| 2026-05-03 22:41 | 53.34031 | -117.78015 | 37984 ft | 475 kts | 219° |
| 2026-05-03 22:41 | 53.28382 | -117.83787 | 38015 ft | 477 kts | 219° |
| 2026-05-03 22:42 | 53.22716 | -117.89552 | 37996 ft | 477 kts | 218° |
| 2026-05-03 22:42 | 53.17036 | -117.95313 | 38012 ft | 477 kts | 218° |
| 2026-05-03 22:43 | 53.11403 | -118.01006 | 38001 ft | 477 kts | 218° |
| 2026-05-03 22:43 | 53.05727 | -118.06730 | 37990 ft | 477 kts | 218° |
| 2026-05-03 22:44 | 53.00030 | -118.12471 | 37999 ft | 479 kts | 219° |
| 2026-05-03 22:44 | 52.94640 | -118.18833 | 37995 ft | 474 kts | 224° |
| 2026-05-03 22:45 | 52.89351 | -118.25329 | 38017 ft | 472 kts | 224° |
| 2026-05-03 22:45 | 52.84074 | -118.31819 | 38006 ft | 473 kts | 223° |
| 2026-05-03 22:46 | 52.78777 | -118.38329 | 38023 ft | 475 kts | 223° |
| 2026-05-03 22:46 | 52.73455 | -118.44840 | 38020 ft | 477 kts | 223° |
| 2026-05-03 22:47 | 52.68155 | -118.51306 | 38017 ft | 477 kts | 223° |
| 2026-05-03 22:47 | 52.62808 | -118.57812 | 38022 ft | 477 kts | 223° |
| 2026-05-03 22:48 | 52.57476 | -118.64281 | 37983 ft | 477 kts | 223° |
| 2026-05-03 22:48 | 52.52117 | -118.70762 | 38018 ft | 479 kts | 223° |
| 2026-05-03 22:49 | 52.46733 | -118.77255 | 38022 ft | 481 kts | 223° |
| 2026-05-03 22:49 | 52.41334 | -118.83737 | 38026 ft | 480 kts | 223° |
| 2026-05-03 22:50 | 52.35976 | -118.90165 | 38005 ft | 479 kts | 223° |
| 2026-05-03 22:50 | 52.30605 | -118.96572 | 38022 ft | 481 kts | 223° |
| 2026-05-03 22:51 | 52.25164 | -119.03049 | 38022 ft | 484 kts | 223° |
| 2026-05-03 22:51 | 52.19709 | -119.09525 | 38022 ft | 484 kts | 223° |
| 2026-05-03 22:52 | 52.14269 | -119.15961 | 38007 ft | 483 kts | 223° |
| 2026-05-03 22:52 | 52.11540 | -119.19183 | 38113 ft | 486 kts | 223° |
| 2026-05-03 22:52 | 52.08844 | -119.22366 | 37987 ft | 485 kts | 222° |
| 2026-05-03 22:53 | 52.03372 | -119.28794 | 38004 ft | 485 kts | 222° |
| 2026-05-03 22:53 | 51.97904 | -119.35206 | 38010 ft | 484 kts | 221° |
| 2026-05-03 22:54 | 51.92443 | -119.41584 | 38023 ft | 484 kts | 222° |
| 2026-05-03 22:54 | 51.86968 | -119.47970 | 37998 ft | 484 kts | 221° |
| 2026-05-03 22:55 | 51.81492 | -119.54336 | 38000 ft | 486 kts | 221° |
| 2026-05-03 22:55 | 51.76022 | -119.60670 | 37998 ft | 487 kts | 221° |
| 2026-05-03 22:56 | 51.70506 | -119.67027 | 37995 ft | 487 kts | 221° |
| 2026-05-03 22:56 | 51.64981 | -119.73393 | 38009 ft | 487 kts | 221° |
| 2026-05-03 22:57 | 51.59471 | -119.79713 | 38017 ft | 485 kts | 220° |
| 2026-05-03 22:57 | 51.54012 | -119.85965 | 37997 ft | 485 kts | 221° |
| 2026-05-03 22:58 | 51.48506 | -119.92241 | 37951 ft | 485 kts | 220° |
| 2026-05-03 22:58 | 51.42991 | -119.98509 | 37978 ft | 486 kts | 220° |
| 2026-05-03 22:59 | 51.37479 | -120.04767 | 37956 ft | 486 kts | 220° |
| 2026-05-03 22:59 | 51.31944 | -120.11023 | 37992 ft | 488 kts | 220° |
| 2026-05-03 23:00 | 51.26396 | -120.17275 | 37985 ft | 488 kts | 220° |
| 2026-05-03 23:00 | 51.20843 | -120.23510 | 37991 ft | 486 kts | 220° |
| 2026-05-03 23:01 | 51.15338 | -120.29679 | 37996 ft | 486 kts | 220° |
| 2026-05-03 23:01 | 51.09793 | -120.35872 | 37979 ft | 487 kts | 220° |
| 2026-05-03 23:02 | 51.04226 | -120.42075 | 37982 ft | 489 kts | 220° |
| 2026-05-03 23:02 | 50.98634 | -120.48283 | 37978 ft | 490 kts | 220° |
| 2026-05-03 23:03 | 50.93039 | -120.54475 | 37959 ft | 490 kts | 220° |
| 2026-05-03 23:03 | 50.87445 | -120.60650 | 37963 ft | 491 kts | 219° |
| 2026-05-03 23:04 | 50.81837 | -120.66823 | 37956 ft | 491 kts | 219° |
| 2026-05-03 23:04 | 50.76225 | -120.72982 | 37963 ft | 492 kts | 219° |
| 2026-05-03 23:05 | 50.70600 | -120.79130 | 37955 ft | 491 kts | 219° |
| 2026-05-03 23:05 | 50.65017 | -120.85215 | 37952 ft | 491 kts | 219° |
| 2026-05-03 23:06 | 50.59385 | -120.91340 | 37959 ft | 493 kts | 219° |
| 2026-05-03 23:06 | 50.56542 | -120.94428 | 37635 ft | 500 kts | 219° |
| 2026-05-03 23:06 | 50.53666 | -120.97544 | 36831 ft | 504 kts | 218° |
| 2026-05-03 23:06 | 50.50754 | -121.00697 | 35789 ft | 513 kts | 218° |
| 2026-05-03 23:07 | 50.47785 | -121.03905 | 34775 ft | 520 kts | 218° |
| 2026-05-03 23:07 | 50.44789 | -121.07134 | 33774 ft | 522 kts | 218° |
| 2026-05-03 23:07 | 50.41792 | -121.10358 | 32667 ft | 522 kts | 217° |
| 2026-05-03 23:07 | 50.38799 | -121.13573 | 31625 ft | 520 kts | 217° |
| 2026-05-03 23:08 | 50.35815 | -121.16773 | 30623 ft | 517 kts | 217° |
| 2026-05-03 23:08 | 50.32859 | -121.19939 | 29702 ft | 511 kts | 217° |
| 2026-05-03 23:08 | 50.29967 | -121.23028 | 29372 ft | 492 kts | 218° |
| 2026-05-03 23:08 | 50.27229 | -121.25948 | 29126 ft | 473 kts | 217° |
| 2026-05-03 23:09 | 50.24556 | -121.28798 | 28864 ft | 456 kts | 218° |
| 2026-05-03 23:09 | 50.21974 | -121.31550 | 28577 ft | 445 kts | 218° |
| 2026-05-03 23:09 | 50.19429 | -121.34259 | 28126 ft | 439 kts | 217° |
| 2026-05-03 23:09 | 50.16918 | -121.36931 | 27663 ft | 434 kts | 217° |
| 2026-05-03 23:10 | 50.14436 | -121.39567 | 27202 ft | 430 kts | 217° |
| 2026-05-03 23:10 | 50.11974 | -121.42177 | 26755 ft | 425 kts | 217° |
| 2026-05-03 23:10 | 50.09542 | -121.44752 | 26297 ft | 421 kts | 217° |
| 2026-05-03 23:10 | 50.07132 | -121.47301 | 25835 ft | 417 kts | 217° |
| 2026-05-03 23:11 | 50.04743 | -121.49827 | 25371 ft | 413 kts | 217° |
| 2026-05-03 23:11 | 50.02366 | -121.52334 | 24913 ft | 410 kts | 217° |
| 2026-05-03 23:11 | 50.00015 | -121.54810 | 24472 ft | 407 kts | 217° |
| 2026-05-03 23:11 | 49.97675 | -121.57270 | 24012 ft | 404 kts | 217° |
| 2026-05-03 23:12 | 49.95384 | -121.59677 | 23561 ft | 402 kts | 217° |
| 2026-05-03 23:12 | 49.93080 | -121.62097 | 23080 ft | 398 kts | 217° |
| 2026-05-03 23:12 | 49.90788 | -121.64501 | 22645 ft | 394 kts | 217° |
| 2026-05-03 23:12 | 49.88527 | -121.66869 | 22207 ft | 390 kts | 217° |
| 2026-05-03 23:13 | 49.86286 | -121.69214 | 21769 ft | 387 kts | 216° |
| 2026-05-03 23:13 | 49.84064 | -121.71534 | 21338 ft | 383 kts | 216° |
| 2026-05-03 23:13 | 49.81864 | -121.73830 | 20916 ft | 380 kts | 216° |
| 2026-05-03 23:13 | 49.79674 | -121.76113 | 20473 ft | 377 kts | 216° |
| 2026-05-03 23:14 | 49.77504 | -121.78373 | 20061 ft | 375 kts | 216° |
| 2026-05-03 23:14 | 49.75348 | -121.80617 | 19645 ft | 372 kts | 216° |
| 2026-05-03 23:14 | 49.73202 | -121.82847 | 19228 ft | 371 kts | 216° |
| 2026-05-03 23:14 | 49.71068 | -121.85064 | 18785 ft | 369 kts | 216° |
| 2026-05-03 23:15 | 49.68968 | -121.87244 | 18368 ft | 367 kts | 215° |
| 2026-05-03 23:15 | 49.66828 | -121.89460 | 17936 ft | 364 kts | 215° |
| 2026-05-03 23:15 | 49.64758 | -121.91601 | 17500 ft | 361 kts | 215° |
| 2026-05-03 23:15 | 49.62691 | -121.93734 | 17163 ft | 355 kts | 215° |
| 2026-05-03 23:16 | 49.60639 | -121.95852 | 16689 ft | 354 kts | 215° |
| 2026-05-03 23:16 | 49.58599 | -121.97959 | 16280 ft | 352 kts | 215° |
| 2026-05-03 23:16 | 49.56545 | -122.00080 | 15863 ft | 349 kts | 215° |
| 2026-05-03 23:16 | 49.54530 | -122.02152 | 15421 ft | 347 kts | 215° |
| 2026-05-03 23:17 | 49.52635 | -122.04364 | 14919 ft | 347 kts | 225° |
| 2026-05-03 23:17 | 49.51126 | -122.07235 | 14466 ft | 344 kts | 237° |
| 2026-05-03 23:17 | 49.49842 | -122.10336 | 13977 ft | 345 kts | 240° |
| 2026-05-03 23:17 | 49.48588 | -122.13498 | 13492 ft | 344 kts | 239° |
| 2026-05-03 23:18 | 49.47365 | -122.16579 | 13392 ft | 330 kts | 240° |
| 2026-05-03 23:18 | 49.46197 | -122.19540 | 13300 ft | 317 kts | 240° |
| 2026-05-03 23:18 | 49.45077 | -122.22380 | 13183 ft | 304 kts | 240° |
| 2026-05-03 23:18 | 49.43997 | -122.25109 | 13048 ft | 294 kts | 239° |
| 2026-05-03 23:19 | 49.42949 | -122.27751 | 12861 ft | 286 kts | 240° |
| 2026-05-03 23:19 | 49.41906 | -122.30380 | 12465 ft | 288 kts | 240° |
| 2026-05-03 23:19 | 49.40861 | -122.33007 | 12086 ft | 288 kts | 240° |
| 2026-05-03 23:19 | 49.39712 | -122.35506 | 11741 ft | 286 kts | 232° |
| 2026-05-03 23:20 | 49.38422 | -122.37835 | 11394 ft | 286 kts | 230° |
| 2026-05-03 23:20 | 49.37117 | -122.40097 | 11053 ft | 286 kts | 229° |
| 2026-05-03 23:20 | 49.35793 | -122.42377 | 10697 ft | 286 kts | 229° |
| 2026-05-03 23:20 | 49.34462 | -122.44644 | 10353 ft | 285 kts | 229° |
| 2026-05-03 23:21 | 49.33137 | -122.46905 | 9994 ft | 285 kts | 228° |
| 2026-05-03 23:21 | 49.31807 | -122.49167 | 9618 ft | 285 kts | 228° |
| 2026-05-03 23:21 | 49.30484 | -122.51409 | 9332 ft | 281 kts | 229° |
| 2026-05-03 23:21 | 49.29176 | -122.53636 | 8925 ft | 281 kts | 229° |
| 2026-05-03 23:22 | 49.26579 | -122.58072 | 8253 ft | 277 kts | 228° |
| 2026-05-03 23:22 | 49.25287 | -122.60277 | 7878 ft | 278 kts | 229° |
| 2026-05-03 23:22 | 49.24004 | -122.62465 | 7608 ft | 274 kts | 228° |
| 2026-05-03 23:23 | 49.22745 | -122.64611 | 7196 ft | 276 kts | 228° |
| 2026-05-03 23:23 | 49.21467 | -122.66792 | 6912 ft | 273 kts | 229° |
| 2026-05-03 23:23 | 49.20334 | -122.69087 | 6599 ft | 271 kts | 237° |
| 2026-05-03 23:23 | 49.19325 | -122.71512 | 6294 ft | 269 kts | 238° |
| 2026-05-03 23:24 | 49.18347 | -122.73943 | 5979 ft | 267 kts | 238° |
| 2026-05-03 23:24 | 49.17378 | -122.76355 | 5582 ft | 267 kts | 238° |
| 2026-05-03 23:24 | 49.16469 | -122.78879 | 4928 ft | 278 kts | 250° |
| 2026-05-03 23:24 | 49.16133 | -122.81809 | 4299 ft | 284 kts | 270° |
| 2026-05-03 23:25 | 49.16361 | -122.84802 | 3855 ft | 283 kts | 281° |
| 2026-05-03 23:25 | 49.16778 | -122.87710 | 3513 ft | 278 kts | 282° |
| 2026-05-03 23:25 | 49.17168 | -122.90561 | 3223 ft | 269 kts | 281° |
| 2026-05-03 23:25 | 49.17379 | -122.92385 | 3019 ft | 256 kts | 279° |
| 2026-05-03 23:26 | 49.17661 | -122.94962 | 2728 ft | 235 kts | 279° |
| 2026-05-03 23:26 | 49.17929 | -122.97314 | 2450 ft | 214 kts | 279° |
| 2026-05-03 23:26 | 49.18174 | -122.99453 | 2145 ft | 195 kts | 279° |
| 2026-05-03 23:26 | 49.18397 | -123.01415 | 1909 ft | 183 kts | 279° |
| 2026-05-03 23:27 | 49.18609 | -123.03287 | 1674 ft | 172 kts | 278° |
| 2026-05-03 23:27 | 49.18801 | -123.04969 | 1444 ft | 149 kts | 279° |
| 2026-05-03 23:27 | 49.18963 | -123.06391 | 1273 ft | 142 kts | 279° |
| 2026-05-03 23:27 | 49.19124 | -123.07812 | 1100 ft | 143 kts | 279° |
| 2026-05-03 23:28 | 49.19276 | -123.09156 | 931 ft | 140 kts | 278° |
| 2026-05-03 23:28 | 49.19438 | -123.10586 | 746 ft | 136 kts | 278° |
| 2026-05-03 23:28 | 49.19599 | -123.12001 | 574 ft | 134 kts | 278° |
| 2026-05-03 23:28 | 49.19755 | -123.13417 | 392 ft | 138 kts | 281° |
| 2026-05-03 23:29 | 49.19929 | -123.14872 | 216 ft | 139 kts | 281° |
| 2026-05-03 23:29 | 49.20085 | -123.16274 | 44 ft | 138 kts | 281° |
| 2026-05-03 23:29 | 49.20207 | -123.17333 | 30 ft | 103 kts | 279° |
| 2026-05-03 23:29 | 49.20290 | -123.18089 | 27 ft | 66 kts | 280° |
| 2026-05-03 23:30 | 49.20358 | -123.18695 | 29 ft | 58 kts | 280° |
| 2026-05-03 23:30 | 49.20380 | -123.19216 | 26 ft | 36 kts | 256° |
| 2026-05-03 23:30 | 49.20321 | -123.19485 | 30 ft | 25 kts | 250° |
| 2026-05-03 23:30 | 49.20278 | -123.19605 | 26 ft | 6 kts | 205° |
| 2026-05-03 23:31 | 49.20246 | -123.19574 | 27 ft | 9 kts | 117° |
| 2026-05-03 23:31 | 49.20222 | -123.19401 | 26 ft | 12 kts | 98° |
| 2026-05-03 23:31 | 49.20212 | -123.19307 | 27 ft | 19 kts | 98° |
| 2026-05-03 23:31 | 49.20192 | -123.19121 | 27 ft | 2 kts | 102° |
| 2026-05-03 23:32 | 49.20191 | -123.19119 | 27 ft | 0 kts | 102° |
| 2026-05-03 23:33 | 49.20191 | -123.19116 | 27 ft | 2 kts | 102° |
| 2026-05-03 23:34 | 49.20183 | -123.19058 | 27 ft | 13 kts | 102° |
| 2026-05-03 23:34 | 49.20165 | -123.18912 | 27 ft | 15 kts | 99° |
| 2026-05-03 23:34 | 49.20147 | -123.18733 | 27 ft | 19 kts | 99° |
| 2026-05-03 23:34 | 49.20126 | -123.18559 | 27 ft | 13 kts | 112° |
| 2026-05-03 23:35 | 49.20052 | -123.18524 | 27 ft | 12 kts | 186° |
| 2026-05-03 23:35 | 49.19981 | -123.18538 | 27 ft | 0 kts | 188° |
| 2026-05-03 23:35 | 49.19979 | -123.18538 | 27 ft | 0 kts | 188° |
| 2026-05-03 23:37 | 49.19980 | -123.18538 | 27 ft | 0 kts | 188° |
| 2026-05-03 23:37 | 49.19978 | -123.18539 | 27 ft | 2 kts | 188° |
| 2026-05-03 23:37 | 49.19916 | -123.18555 | 27 ft | 5 kts | 190° |
| 2026-05-03 23:38 | 49.19864 | -123.18569 | 27 ft | 10 kts | 190° |
| 2026-05-03 23:38 | 49.19796 | -123.18558 | 27 ft | 11 kts | 146° |
| 2026-05-03 23:38 | 49.19762 | -123.18437 | 27 ft | 15 kts | 101° |
| 2026-05-03 23:38 | 49.19763 | -123.18316 | 27 ft | 7 kts | 51° |
| 2026-05-03 23:39 | 49.19807 | -123.18298 | 27 ft | 6 kts | 10° |
| 2026-05-03 23:39 | 49.19820 | -123.18295 | 27 ft | 0 kts | 9° |